sensor_id;sensor_type;location;lat;lon;timestamp;P1;durP1;ratioP1;P2;durP2;ratioP2
35550;SDS011;21655;46.056;13.616;2022-11-18T00:02:03;36.45;;;19.23;;
35550;SDS011;21655;46.056;13.616;2022-11-18T00:04:29;36.28;;;19.42;;
35550;SDS011;21655;46.056;13.616;2022-11-18T00:06:54;36.95;;;19.27;;
35550;SDS011;21655;46.056;13.616;2022-11-18T00:09:20;34.65;;;19.27;;
35550;SDS011;21655;46.056;13.616;2022-11-18T00:11:45;36.22;;;20.08;;
35550;SDS011;21655;46.056;13.616;2022-11-18T00:16:56;39.08;;;18.92;;
35550;SDS011;21655;46.056;13.616;2022-11-18T00:19:27;38.95;;;18.75;;
35550;SDS011;21655;46.056;13.616;2022-11-18T00:21:57;36.60;;;19.27;;
35550;SDS011;21655;46.056;13.616;2022-11-18T00:24:23;33.78;;;18.55;;
35550;SDS011;21655;46.056;13.616;2022-11-18T00:26:49;35.15;;;17.25;;
35550;SDS011;21655;46.056;13.616;2022-11-18T00:29:15;34.10;;;18.15;;
35550;SDS011;21655;46.056;13.616;2022-11-18T00:31:41;33.67;;;17.95;;
35550;SDS011;21655;46.056;13.616;2022-11-18T00:34:06;35.25;;;17.77;;
35550;SDS011;21655;46.056;13.616;2022-11-18T00:36:34;33.40;;;17.27;;
35550;SDS011;21655;46.056;13.616;2022-11-18T00:39:00;29.90;;;17.23;;
35550;SDS011;21655;46.056;13.616;2022-11-18T00:41:26;34.30;;;18.55;;
35550;SDS011;21655;46.056;13.616;2022-11-18T00:44:12;37.85;;;18.17;;
35550;SDS011;21655;46.056;13.616;2022-11-18T00:46:37;37.70;;;18.35;;
35550;SDS011;21655;46.056;13.616;2022-11-18T00:49:03;38.05;;;18.88;;
35550;SDS011;21655;46.056;13.616;2022-11-18T00:51:28;35.40;;;18.05;;
35550;SDS011;21655;46.056;13.616;2022-11-18T00:53:54;35.78;;;18.70;;
35550;SDS011;21655;46.056;13.616;2022-11-18T00:56:19;32.53;;;18.17;;
35550;SDS011;21655;46.056;13.616;2022-11-18T00:58:44;35.47;;;18.88;;
35550;SDS011;21655;46.056;13.616;2022-11-18T01:01:10;31.10;;;17.98;;
35550;SDS011;21655;46.056;13.616;2022-11-18T01:03:35;35.22;;;16.77;;
35550;SDS011;21655;46.056;13.616;2022-11-18T01:06:01;28.90;;;17.45;;
35550;SDS011;21655;46.056;13.616;2022-11-18T01:08:26;35.83;;;18.40;;
35550;SDS011;21655;46.056;13.616;2022-11-18T01:10:51;40.88;;;18.38;;
35550;SDS011;21655;46.056;13.616;2022-11-18T01:13:18;34.30;;;18.90;;
35550;SDS011;21655;46.056;13.616;2022-11-18T01:15:45;36.67;;;17.45;;
35550;SDS011;21655;46.056;13.616;2022-11-18T01:18:16;34.75;;;18.02;;
35550;SDS011;21655;46.056;13.616;2022-11-18T01:20:43;32.67;;;17.92;;
35550;SDS011;21655;46.056;13.616;2022-11-18T01:23:10;35.42;;;18.77;;
35550;SDS011;21655;46.056;13.616;2022-11-18T01:25:36;32.70;;;17.92;;
35550;SDS011;21655;46.056;13.616;2022-11-18T01:28:02;35.45;;;19.20;;
35550;SDS011;21655;46.056;13.616;2022-11-18T01:30:28;37.15;;;19.55;;
35550;SDS011;21655;46.056;13.616;2022-11-18T01:32:54;37.17;;;20.45;;
35550;SDS011;21655;46.056;13.616;2022-11-18T01:35:19;34.22;;;18.67;;
35550;SDS011;21655;46.056;13.616;2022-11-18T01:37:45;32.38;;;18.63;;
35550;SDS011;21655;46.056;13.616;2022-11-18T01:40:11;37.72;;;19.15;;
35550;SDS011;21655;46.056;13.616;2022-11-18T01:42:36;39.35;;;18.02;;
35550;SDS011;21655;46.056;13.616;2022-11-18T01:47:47;32.57;;;18.30;;
35550;SDS011;21655;46.056;13.616;2022-11-18T01:50:15;35.03;;;18.27;;
35550;SDS011;21655;46.056;13.616;2022-11-18T01:52:44;34.15;;;17.48;;
35550;SDS011;21655;46.056;13.616;2022-11-18T01:55:15;30.65;;;17.55;;
35550;SDS011;21655;46.056;13.616;2022-11-18T01:57:43;31.92;;;17.17;;
35550;SDS011;21655;46.056;13.616;2022-11-18T02:00:12;29.90;;;17.08;;
35550;SDS011;21655;46.056;13.616;2022-11-18T02:02:38;30.05;;;17.40;;
35550;SDS011;21655;46.056;13.616;2022-11-18T02:05:04;26.48;;;16.23;;
35550;SDS011;21655;46.056;13.616;2022-11-18T02:07:41;29.65;;;16.73;;
35550;SDS011;21655;46.056;13.616;2022-11-18T02:10:08;25.25;;;16.35;;
35550;SDS011;21655;46.056;13.616;2022-11-18T02:12:34;30.13;;;16.63;;
35550;SDS011;21655;46.056;13.616;2022-11-18T02:15:01;30.80;;;16.65;;
35550;SDS011;21655;46.056;13.616;2022-11-18T02:36:13;27.15;;;15.95;;
35550;SDS011;21655;46.056;13.616;2022-11-18T02:38:45;31.60;;;17.42;;
35550;SDS011;21655;46.056;13.616;2022-11-18T02:41:16;27.67;;;16.20;;
35550;SDS011;21655;46.056;13.616;2022-11-18T02:43:46;31.02;;;16.30;;
35550;SDS011;21655;46.056;13.616;2022-11-18T02:46:16;28.67;;;16.42;;
35550;SDS011;21655;46.056;13.616;2022-11-18T02:48:48;29.80;;;16.50;;
35550;SDS011;21655;46.056;13.616;2022-11-18T02:51:17;30.58;;;15.50;;
35550;SDS011;21655;46.056;13.616;2022-11-18T02:53:47;33.05;;;16.42;;
35550;SDS011;21655;46.056;13.616;2022-11-18T02:56:15;25.05;;;15.98;;
35550;SDS011;21655;46.056;13.616;2022-11-18T02:58:42;28.33;;;16.38;;
35550;SDS011;21655;46.056;13.616;2022-11-18T03:01:14;27.90;;;15.93;;
35550;SDS011;21655;46.056;13.616;2022-11-18T03:03:44;27.27;;;16.17;;
35550;SDS011;21655;46.056;13.616;2022-11-18T03:14:56;24.92;;;15.15;;
35550;SDS011;21655;46.056;13.616;2022-11-18T03:21:28;26.23;;;15.70;;
35550;SDS011;21655;46.056;13.616;2022-11-18T03:26:50;28.73;;;15.40;;
35550;SDS011;21655;46.056;13.616;2022-11-18T03:29:23;31.30;;;15.80;;
35550;SDS011;21655;46.056;13.616;2022-11-18T03:31:55;33.78;;;15.93;;
35550;SDS011;21655;46.056;13.616;2022-11-18T03:34:33;26.35;;;15.40;;
35550;SDS011;21655;46.056;13.616;2022-11-18T03:37:10;34.20;;;15.43;;
35550;SDS011;21655;46.056;13.616;2022-11-18T03:39:39;23.48;;;15.35;;
35550;SDS011;21655;46.056;13.616;2022-11-18T03:42:11;28.55;;;15.68;;
35550;SDS011;21655;46.056;13.616;2022-11-18T03:44:46;27.13;;;16.13;;
35550;SDS011;21655;46.056;13.616;2022-11-18T03:47:39;25.63;;;15.77;;
35550;SDS011;21655;46.056;13.616;2022-11-18T03:50:12;27.08;;;16.50;;
35550;SDS011;21655;46.056;13.616;2022-11-18T03:52:51;26.77;;;15.70;;
35550;SDS011;21655;46.056;13.616;2022-11-18T03:55:22;25.15;;;15.27;;
35550;SDS011;21655;46.056;13.616;2022-11-18T04:00:24;22.73;;;14.73;;
35550;SDS011;21655;46.056;13.616;2022-11-18T04:02:53;32.75;;;15.13;;
35550;SDS011;21655;46.056;13.616;2022-11-18T04:05:19;24.40;;;14.93;;
35550;SDS011;21655;46.056;13.616;2022-11-18T04:07:57;26.33;;;15.68;;
35550;SDS011;21655;46.056;13.616;2022-11-18T04:15:41;28.42;;;15.85;;
35550;SDS011;21655;46.056;13.616;2022-11-18T04:18:07;27.38;;;15.80;;
35550;SDS011;21655;46.056;13.616;2022-11-18T04:20:33;25.60;;;15.93;;
35550;SDS011;21655;46.056;13.616;2022-11-18T04:22:59;23.20;;;15.60;;
35550;SDS011;21655;46.056;13.616;2022-11-18T04:25:25;24.70;;;16.70;;
35550;SDS011;21655;46.056;13.616;2022-11-18T04:27:51;22.58;;;14.98;;
35550;SDS011;21655;46.056;13.616;2022-11-18T04:30:16;26.85;;;15.07;;
35550;SDS011;21655;46.056;13.616;2022-11-18T04:32:42;24.42;;;15.70;;
35550;SDS011;21655;46.056;13.616;2022-11-18T04:35:08;25.98;;;16.13;;
35550;SDS011;21655;46.056;13.616;2022-11-18T04:37:33;24.02;;;15.57;;
35550;SDS011;21655;46.056;13.616;2022-11-18T04:39:59;25.52;;;15.55;;
35550;SDS011;21655;46.056;13.616;2022-11-18T04:42:24;23.75;;;15.13;;
35550;SDS011;21655;46.056;13.616;2022-11-18T04:44:50;31.52;;;15.23;;
35550;SDS011;21655;46.056;13.616;2022-11-18T04:47:15;22.20;;;15.10;;
35550;SDS011;21655;46.056;13.616;2022-11-18T04:49:41;22.13;;;13.77;;
35550;SDS011;21655;46.056;13.616;2022-11-18T04:52:06;22.15;;;13.95;;
35550;SDS011;21655;46.056;13.616;2022-11-18T04:54:32;20.55;;;13.30;;
35550;SDS011;21655;46.056;13.616;2022-11-18T04:56:57;22.02;;;14.43;;
35550;SDS011;21655;46.056;13.616;2022-11-18T04:59:24;25.08;;;15.00;;
35550;SDS011;21655;46.056;13.616;2022-11-18T05:01:51;28.67;;;14.77;;
35550;SDS011;21655;46.056;13.616;2022-11-18T05:04:18;24.65;;;14.13;;
35550;SDS011;21655;46.056;13.616;2022-11-18T05:06:46;20.70;;;14.05;;
35550;SDS011;21655;46.056;13.616;2022-11-18T05:09:12;22.60;;;13.73;;
35550;SDS011;21655;46.056;13.616;2022-11-18T05:11:37;26.48;;;13.98;;
35550;SDS011;21655;46.056;13.616;2022-11-18T05:14:23;21.75;;;13.57;;
35550;SDS011;21655;46.056;13.616;2022-11-18T05:16:54;23.05;;;13.90;;
35550;SDS011;21655;46.056;13.616;2022-11-18T05:19:20;25.88;;;14.80;;
35550;SDS011;21655;46.056;13.616;2022-11-18T05:21:46;23.05;;;13.65;;
35550;SDS011;21655;46.056;13.616;2022-11-18T05:24:11;25.25;;;13.18;;
35550;SDS011;21655;46.056;13.616;2022-11-18T05:26:36;62.17;;;39.85;;
35550;SDS011;21655;46.056;13.616;2022-11-18T05:29:02;19.10;;;12.85;;
35550;SDS011;21655;46.056;13.616;2022-11-18T05:31:28;25.33;;;13.18;;
35550;SDS011;21655;46.056;13.616;2022-11-18T05:33:53;21.40;;;12.93;;
35550;SDS011;21655;46.056;13.616;2022-11-18T05:36:19;22.40;;;13.68;;
35550;SDS011;21655;46.056;13.616;2022-11-18T05:38:45;21.90;;;14.15;;
35550;SDS011;21655;46.056;13.616;2022-11-18T05:41:11;24.65;;;15.10;;
35550;SDS011;21655;46.056;13.616;2022-11-18T05:44:00;23.95;;;13.88;;
35550;SDS011;21655;46.056;13.616;2022-11-18T05:46:26;25.52;;;14.38;;
35550;SDS011;21655;46.056;13.616;2022-11-18T05:48:52;20.60;;;13.98;;
35550;SDS011;21655;46.056;13.616;2022-11-18T05:51:18;26.13;;;14.98;;
35550;SDS011;21655;46.056;13.616;2022-11-18T05:53:44;23.38;;;14.00;;
35550;SDS011;21655;46.056;13.616;2022-11-18T05:56:18;22.58;;;14.40;;
35550;SDS011;21655;46.056;13.616;2022-11-18T05:58:45;21.83;;;13.38;;
35550;SDS011;21655;46.056;13.616;2022-11-18T06:01:10;22.35;;;13.93;;
35550;SDS011;21655;46.056;13.616;2022-11-18T06:03:39;23.98;;;13.52;;
35550;SDS011;21655;46.056;13.616;2022-11-18T06:06:06;23.23;;;13.57;;
35550;SDS011;21655;46.056;13.616;2022-11-18T06:08:37;23.80;;;13.40;;
35550;SDS011;21655;46.056;13.616;2022-11-18T06:11:05;20.58;;;13.15;;
35550;SDS011;21655;46.056;13.616;2022-11-18T06:13:37;22.08;;;12.55;;
35550;SDS011;21655;46.056;13.616;2022-11-18T06:16:06;22.55;;;12.52;;
35550;SDS011;21655;46.056;13.616;2022-11-18T06:18:31;22.92;;;12.90;;
35550;SDS011;21655;46.056;13.616;2022-11-18T06:20:59;20.58;;;13.05;;
35550;SDS011;21655;46.056;13.616;2022-11-18T06:23:28;21.85;;;13.02;;
35550;SDS011;21655;46.056;13.616;2022-11-18T06:25:56;21.25;;;13.40;;
35550;SDS011;21655;46.056;13.616;2022-11-18T06:28:21;26.65;;;14.57;;
35550;SDS011;21655;46.056;13.616;2022-11-18T06:30:48;23.63;;;13.38;;
35550;SDS011;21655;46.056;13.616;2022-11-18T06:33:13;33.67;;;20.83;;
35550;SDS011;21655;46.056;13.616;2022-11-18T06:35:40;25.42;;;15.50;;
35550;SDS011;21655;46.056;13.616;2022-11-18T06:38:06;25.83;;;14.50;;
35550;SDS011;21655;46.056;13.616;2022-11-18T06:40:32;25.70;;;15.27;;
35550;SDS011;21655;46.056;13.616;2022-11-18T06:43:03;22.95;;;14.27;;
35550;SDS011;21655;46.056;13.616;2022-11-18T06:45:51;25.50;;;14.25;;
35550;SDS011;21655;46.056;13.616;2022-11-18T06:48:34;26.38;;;14.52;;
35550;SDS011;21655;46.056;13.616;2022-11-18T06:51:03;24.98;;;14.15;;
35550;SDS011;21655;46.056;13.616;2022-11-18T06:53:29;23.85;;;14.35;;
35550;SDS011;21655;46.056;13.616;2022-11-18T06:55:54;25.70;;;14.27;;
35550;SDS011;21655;46.056;13.616;2022-11-18T06:58:20;24.25;;;14.75;;
35550;SDS011;21655;46.056;13.616;2022-11-18T07:00:45;28.95;;;15.00;;
35550;SDS011;21655;46.056;13.616;2022-11-18T07:03:11;25.38;;;13.93;;
35550;SDS011;21655;46.056;13.616;2022-11-18T07:05:36;24.92;;;14.75;;
35550;SDS011;21655;46.056;13.616;2022-11-18T07:08:01;23.25;;;14.93;;
35550;SDS011;21655;46.056;13.616;2022-11-18T07:10:27;22.92;;;13.82;;
35550;SDS011;21655;46.056;13.616;2022-11-18T07:12:52;26.25;;;13.48;;
35550;SDS011;21655;46.056;13.616;2022-11-18T07:15:18;22.70;;;11.88;;
35550;SDS011;21655;46.056;13.616;2022-11-18T07:17:43;23.40;;;12.77;;
35550;SDS011;21655;46.056;13.616;2022-11-18T07:20:08;28.30;;;12.80;;
35550;SDS011;21655;46.056;13.616;2022-11-18T07:22:34;27.60;;;12.45;;
35550;SDS011;21655;46.056;13.616;2022-11-18T07:25:00;23.45;;;16.45;;
35550;SDS011;21655;46.056;13.616;2022-11-18T07:27:25;20.42;;;11.85;;
35550;SDS011;21655;46.056;13.616;2022-11-18T07:29:50;20.48;;;11.73;;
35550;SDS011;21655;46.056;13.616;2022-11-18T07:32:16;18.80;;;12.20;;
35550;SDS011;21655;46.056;13.616;2022-11-18T07:34:41;21.67;;;12.65;;
35550;SDS011;21655;46.056;13.616;2022-11-18T07:37:07;20.40;;;12.60;;
35550;SDS011;21655;46.056;13.616;2022-11-18T07:39:32;19.08;;;12.05;;
35550;SDS011;21655;46.056;13.616;2022-11-18T07:41:58;20.65;;;12.75;;
35550;SDS011;21655;46.056;13.616;2022-11-18T07:44:23;17.08;;;10.90;;
35550;SDS011;21655;46.056;13.616;2022-11-18T07:46:48;17.42;;;11.50;;
35550;SDS011;21655;46.056;13.616;2022-11-18T07:49:14;18.35;;;11.23;;
35550;SDS011;21655;46.056;13.616;2022-11-18T07:51:40;18.30;;;11.18;;
35550;SDS011;21655;46.056;13.616;2022-11-18T07:54:09;100.45;;;55.20;;
35550;SDS011;21655;46.056;13.616;2022-11-18T07:56:36;53.22;;;29.50;;
35550;SDS011;21655;46.056;13.616;2022-11-18T07:59:02;20.75;;;13.35;;
35550;SDS011;21655;46.056;13.616;2022-11-18T08:01:28;20.98;;;11.88;;
35550;SDS011;21655;46.056;13.616;2022-11-18T08:03:55;19.85;;;10.68;;
35550;SDS011;21655;46.056;13.616;2022-11-18T08:06:21;17.42;;;9.90;;
35550;SDS011;21655;46.056;13.616;2022-11-18T08:08:46;15.38;;;9.52;;
35550;SDS011;21655;46.056;13.616;2022-11-18T08:11:16;13.48;;;8.20;;
35550;SDS011;21655;46.056;13.616;2022-11-18T08:13:43;12.43;;;8.77;;
35550;SDS011;21655;46.056;13.616;2022-11-18T08:16:12;13.88;;;8.65;;
35550;SDS011;21655;46.056;13.616;2022-11-18T08:18:40;14.20;;;8.50;;
35550;SDS011;21655;46.056;13.616;2022-11-18T08:21:06;13.68;;;8.43;;
35550;SDS011;21655;46.056;13.616;2022-11-18T08:23:31;15.45;;;8.90;;
35550;SDS011;21655;46.056;13.616;2022-11-18T08:26:00;16.10;;;8.13;;
35550;SDS011;21655;46.056;13.616;2022-11-18T08:28:34;14.30;;;8.02;;
35550;SDS011;21655;46.056;13.616;2022-11-18T08:30:59;11.25;;;6.78;;
35550;SDS011;21655;46.056;13.616;2022-11-18T08:33:25;12.38;;;7.18;;
35550;SDS011;21655;46.056;13.616;2022-11-18T08:35:50;14.93;;;7.57;;
35550;SDS011;21655;46.056;13.616;2022-11-18T08:38:16;19.30;;;9.10;;
35550;SDS011;21655;46.056;13.616;2022-11-18T08:40:43;12.25;;;8.43;;
35550;SDS011;21655;46.056;13.616;2022-11-18T08:43:11;11.43;;;7.43;;
35550;SDS011;21655;46.056;13.616;2022-11-18T08:45:38;14.15;;;6.97;;
35550;SDS011;21655;46.056;13.616;2022-11-18T08:48:04;12.63;;;6.32;;
35550;SDS011;21655;46.056;13.616;2022-11-18T08:50:30;11.05;;;6.30;;
35550;SDS011;21655;46.056;13.616;2022-11-18T08:52:55;10.60;;;6.18;;
35550;SDS011;21655;46.056;13.616;2022-11-18T08:55:20;13.05;;;6.38;;
35550;SDS011;21655;46.056;13.616;2022-11-18T08:57:46;10.02;;;5.57;;
35550;SDS011;21655;46.056;13.616;2022-11-18T09:00:12;12.52;;;5.10;;
35550;SDS011;21655;46.056;13.616;2022-11-18T09:02:38;15.20;;;5.70;;
35550;SDS011;21655;46.056;13.616;2022-11-18T09:05:03;10.48;;;5.10;;
35550;SDS011;21655;46.056;13.616;2022-11-18T09:07:29;13.93;;;5.22;;
35550;SDS011;21655;46.056;13.616;2022-11-18T09:09:55;11.93;;;5.22;;
35550;SDS011;21655;46.056;13.616;2022-11-18T09:12:20;20.02;;;6.25;;
35550;SDS011;21655;46.056;13.616;2022-11-18T09:14:45;12.77;;;5.38;;
35550;SDS011;21655;46.056;13.616;2022-11-18T09:17:11;9.27;;;4.88;;
35550;SDS011;21655;46.056;13.616;2022-11-18T09:19:38;8.07;;;4.57;;
35550;SDS011;21655;46.056;13.616;2022-11-18T09:22:04;11.18;;;4.80;;
35550;SDS011;21655;46.056;13.616;2022-11-18T09:24:29;6.38;;;3.90;;
35550;SDS011;21655;46.056;13.616;2022-11-18T09:26:55;6.65;;;4.40;;
35550;SDS011;21655;46.056;13.616;2022-11-18T09:29:20;7.18;;;4.70;;
35550;SDS011;21655;46.056;13.616;2022-11-18T09:31:52;8.25;;;4.63;;
35550;SDS011;21655;46.056;13.616;2022-11-18T09:34:18;7.45;;;4.63;;
35550;SDS011;21655;46.056;13.616;2022-11-18T09:36:44;7.05;;;4.00;;
35550;SDS011;21655;46.056;13.616;2022-11-18T09:39:09;8.65;;;5.40;;
35550;SDS011;21655;46.056;13.616;2022-11-18T09:41:39;9.00;;;4.55;;
35550;SDS011;21655;46.056;13.616;2022-11-18T09:51:54;9.70;;;3.97;;
35550;SDS011;21655;46.056;13.616;2022-11-18T09:54:21;12.50;;;3.70;;
35550;SDS011;21655;46.056;13.616;2022-11-18T09:56:50;8.15;;;3.83;;
35550;SDS011;21655;46.056;13.616;2022-11-18T09:59:17;6.43;;;3.83;;
35550;SDS011;21655;46.056;13.616;2022-11-18T10:01:45;6.25;;;4.15;;
35550;SDS011;21655;46.056;13.616;2022-11-18T10:04:16;5.68;;;3.13;;
35550;SDS011;21655;46.056;13.616;2022-11-18T10:06:44;4.32;;;3.13;;
35550;SDS011;21655;46.056;13.616;2022-11-18T10:20:33;10.20;;;5.35;;
35550;SDS011;21655;46.056;13.616;2022-11-18T10:27:57;9.30;;;5.03;;
35550;SDS011;21655;46.056;13.616;2022-11-18T10:30:37;10.20;;;4.97;;
35550;SDS011;21655;46.056;13.616;2022-11-18T10:33:03;7.78;;;4.72;;
35550;SDS011;21655;46.056;13.616;2022-11-18T10:35:47;9.18;;;5.03;;
35550;SDS011;21655;46.056;13.616;2022-11-18T10:40:43;11.13;;;5.95;;
35550;SDS011;21655;46.056;13.616;2022-11-18T10:51:33;14.48;;;9.15;;
35550;SDS011;21655;46.056;13.616;2022-11-18T10:54:07;12.32;;;9.13;;
35550;SDS011;21655;46.056;13.616;2022-11-18T10:56:43;12.32;;;8.82;;
35550;SDS011;21655;46.056;13.616;2022-11-18T10:59:20;12.13;;;8.18;;
35550;SDS011;21655;46.056;13.616;2022-11-18T11:02:33;10.32;;;6.60;;
35550;SDS011;21655;46.056;13.616;2022-11-18T11:05:03;12.00;;;7.07;;
35550;SDS011;21655;46.056;13.616;2022-11-18T11:07:45;11.23;;;6.70;;
35550;SDS011;21655;46.056;13.616;2022-11-18T11:10:25;12.88;;;6.35;;
35550;SDS011;21655;46.056;13.616;2022-11-18T11:12:58;7.82;;;5.20;;
35550;SDS011;21655;46.056;13.616;2022-11-18T11:15:33;9.30;;;5.35;;
35550;SDS011;21655;46.056;13.616;2022-11-18T11:18:05;9.75;;;5.38;;
35550;SDS011;21655;46.056;13.616;2022-11-18T11:20:57;9.35;;;5.93;;
35550;SDS011;21655;46.056;13.616;2022-11-18T11:23:23;8.45;;;5.65;;
35550;SDS011;21655;46.056;13.616;2022-11-18T11:25:56;12.82;;;6.40;;
35550;SDS011;21655;46.056;13.616;2022-11-18T11:33:49;11.40;;;5.55;;
35550;SDS011;21655;46.056;13.616;2022-11-18T11:36:20;8.90;;;5.53;;
35550;SDS011;21655;46.056;13.616;2022-11-18T11:50:12;10.52;;;4.10;;
35550;SDS011;21655;46.056;13.616;2022-11-18T11:52:52;8.07;;;5.28;;
35550;SDS011;21655;46.056;13.616;2022-11-18T12:00:54;8.82;;;5.82;;
35550;SDS011;21655;46.056;13.616;2022-11-18T12:06:06;11.63;;;6.28;;
35550;SDS011;21655;46.056;13.616;2022-11-18T12:08:34;18.27;;;6.82;;
35550;SDS011;21655;46.056;13.616;2022-11-18T12:19:00;10.05;;;3.60;;
35550;SDS011;21655;46.056;13.616;2022-11-18T12:26:48;7.43;;;3.17;;
35550;SDS011;21655;46.056;13.616;2022-11-18T12:31:43;2.28;;;1.50;;
35550;SDS011;21655;46.056;13.616;2022-11-18T12:38:03;4.72;;;1.98;;
35550;SDS011;21655;46.056;13.616;2022-11-18T12:39:58;3.78;;;1.60;;
35550;SDS011;21655;46.056;13.616;2022-11-18T12:48:25;7.57;;;3.33;;
35550;SDS011;21655;46.056;13.616;2022-11-18T12:50:54;5.75;;;2.03;;
35550;SDS011;21655;46.056;13.616;2022-11-18T12:53:28;6.00;;;2.40;;
35550;SDS011;21655;46.056;13.616;2022-11-18T12:55:56;5.03;;;2.35;;
35550;SDS011;21655;46.056;13.616;2022-11-18T12:58:23;9.20;;;6.13;;
35550;SDS011;21655;46.056;13.616;2022-11-18T13:00:49;10.00;;;5.25;;
35550;SDS011;21655;46.056;13.616;2022-11-18T13:03:22;4.53;;;2.50;;
35550;SDS011;21655;46.056;13.616;2022-11-18T13:05:49;5.10;;;2.97;;
35550;SDS011;21655;46.056;13.616;2022-11-18T13:08:22;9.63;;;4.22;;
35550;SDS011;21655;46.056;13.616;2022-11-18T13:13:28;11.35;;;4.03;;
35550;SDS011;21655;46.056;13.616;2022-11-18T13:15:56;8.52;;;3.40;;
35550;SDS011;21655;46.056;13.616;2022-11-18T13:18:50;5.10;;;2.72;;
35550;SDS011;21655;46.056;13.616;2022-11-18T13:21:21;8.15;;;2.40;;
35550;SDS011;21655;46.056;13.616;2022-11-18T13:24:10;3.58;;;1.70;;
35550;SDS011;21655;46.056;13.616;2022-11-18T13:26:37;4.50;;;1.10;;
35550;SDS011;21655;46.056;13.616;2022-11-18T13:34:40;2.70;;;1.10;;
35550;SDS011;21655;46.056;13.616;2022-11-18T13:37:13;7.40;;;3.35;;
35550;SDS011;21655;46.056;13.616;2022-11-18T13:39:43;11.07;;;3.38;;
35550;SDS011;21655;46.056;13.616;2022-11-18T13:44:45;3.58;;;1.30;;
35550;SDS011;21655;46.056;13.616;2022-11-18T13:50:34;2.85;;;1.02;;
35550;SDS011;21655;46.056;13.616;2022-11-18T13:55:44;2.17;;;0.73;;
35550;SDS011;21655;46.056;13.616;2022-11-18T14:00:43;3.10;;;1.60;;
35550;SDS011;21655;46.056;13.616;2022-11-18T14:05:52;9.10;;;3.40;;
35550;SDS011;21655;46.056;13.616;2022-11-18T14:08:31;6.43;;;3.65;;
35550;SDS011;21655;46.056;13.616;2022-11-18T14:10:58;4.78;;;2.55;;
35550;SDS011;21655;46.056;13.616;2022-11-18T14:15:59;76.38;;;39.78;;
35550;SDS011;21655;46.056;13.616;2022-11-18T14:20:59;9.70;;;5.55;;
35550;SDS011;21655;46.056;13.616;2022-11-18T14:23:29;3.53;;;1.80;;
35550;SDS011;21655;46.056;13.616;2022-11-18T14:25:57;5.43;;;4.32;;
35550;SDS011;21655;46.056;13.616;2022-11-18T14:33:35;2.28;;;0.52;;
35550;SDS011;21655;46.056;13.616;2022-11-18T14:38:40;3.45;;;2.40;;
35550;SDS011;21655;46.056;13.616;2022-11-18T14:41:10;3.47;;;1.90;;
35550;SDS011;21655;46.056;13.616;2022-11-18T14:43:37;2.67;;;0.90;;
35550;SDS011;21655;46.056;13.616;2022-11-18T14:46:03;6.00;;;0.90;;
35550;SDS011;21655;46.056;13.616;2022-11-18T14:48:31;3.42;;;1.10;;
35550;SDS011;21655;46.056;13.616;2022-11-18T14:50:57;5.05;;;1.30;;
35550;SDS011;21655;46.056;13.616;2022-11-18T14:53:23;3.45;;;1.30;;
35550;SDS011;21655;46.056;13.616;2022-11-18T14:55:50;3.80;;;1.05;;
35550;SDS011;21655;46.056;13.616;2022-11-18T14:58:18;1.75;;;0.80;;
35550;SDS011;21655;46.056;13.616;2022-11-18T15:00:44;2.20;;;1.10;;
35550;SDS011;21655;46.056;13.616;2022-11-18T15:03:11;4.72;;;1.10;;
35550;SDS011;21655;46.056;13.616;2022-11-18T15:05:37;1.80;;;0.90;;
35550;SDS011;21655;46.056;13.616;2022-11-18T15:08:03;3.38;;;1.10;;
35550;SDS011;21655;46.056;13.616;2022-11-18T15:10:28;6.15;;;2.47;;
35550;SDS011;21655;46.056;13.616;2022-11-18T15:12:54;5.18;;;2.17;;
35550;SDS011;21655;46.056;13.616;2022-11-18T15:15:20;4.25;;;2.55;;
35550;SDS011;21655;46.056;13.616;2022-11-18T15:17:45;7.55;;;3.72;;
35550;SDS011;21655;46.056;13.616;2022-11-18T15:20:11;7.72;;;3.58;;
35550;SDS011;21655;46.056;13.616;2022-11-18T15:22:39;8.35;;;3.47;;
35550;SDS011;21655;46.056;13.616;2022-11-18T15:25:04;6.95;;;3.20;;
35550;SDS011;21655;46.056;13.616;2022-11-18T15:27:30;8.82;;;2.70;;
35550;SDS011;21655;46.056;13.616;2022-11-18T15:29:55;3.40;;;1.63;;
35550;SDS011;21655;46.056;13.616;2022-11-18T15:32:21;4.10;;;1.73;;
35550;SDS011;21655;46.056;13.616;2022-11-18T15:34:46;3.95;;;2.10;;
35550;SDS011;21655;46.056;13.616;2022-11-18T15:37:12;6.30;;;2.28;;
35550;SDS011;21655;46.056;13.616;2022-11-18T15:39:38;10.35;;;3.17;;
35550;SDS011;21655;46.056;13.616;2022-11-18T15:42:04;6.18;;;3.47;;
35550;SDS011;21655;46.056;13.616;2022-11-18T15:44:29;4.50;;;3.00;;
35550;SDS011;21655;46.056;13.616;2022-11-18T15:46:55;9.80;;;3.30;;
35550;SDS011;21655;46.056;13.616;2022-11-18T15:49:21;8.95;;;3.85;;
35550;SDS011;21655;46.056;13.616;2022-11-18T15:51:46;10.73;;;3.92;;
35550;SDS011;21655;46.056;13.616;2022-11-18T15:54:12;8.38;;;5.28;;
35550;SDS011;21655;46.056;13.616;2022-11-18T15:56:37;7.95;;;4.60;;
35550;SDS011;21655;46.056;13.616;2022-11-18T16:01:33;38.30;;;19.55;;
35550;SDS011;21655;46.056;13.616;2022-11-18T16:04:07;20.08;;;10.93;;
35550;SDS011;21655;46.056;13.616;2022-11-18T16:06:34;63.70;;;33.42;;
35550;SDS011;21655;46.056;13.616;2022-11-18T16:09:00;27.88;;;16.70;;
35550;SDS011;21655;46.056;13.616;2022-11-18T16:11:27;44.92;;;32.22;;
35550;SDS011;21655;46.056;13.616;2022-11-18T16:14:12;21.35;;;9.75;;
35550;SDS011;21655;46.056;13.616;2022-11-18T16:16:39;15.93;;;9.77;;
35550;SDS011;21655;46.056;13.616;2022-11-18T16:19:06;16.65;;;9.93;;
35550;SDS011;21655;46.056;13.616;2022-11-18T16:21:35;7.25;;;4.55;;
35550;SDS011;21655;46.056;13.616;2022-11-18T16:24:03;15.02;;;5.72;;
35550;SDS011;21655;46.056;13.616;2022-11-18T16:26:31;17.75;;;12.23;;
35550;SDS011;21655;46.056;13.616;2022-11-18T16:28:57;12.57;;;4.82;;
35550;SDS011;21655;46.056;13.616;2022-11-18T16:31:24;10.55;;;5.28;;
35550;SDS011;21655;46.056;13.616;2022-11-18T16:34:06;10.98;;;5.60;;
35550;SDS011;21655;46.056;13.616;2022-11-18T16:36:38;10.32;;;6.43;;
35550;SDS011;21655;46.056;13.616;2022-11-18T16:39:09;20.67;;;11.65;;
35550;SDS011;21655;46.056;13.616;2022-11-18T16:41:36;21.20;;;15.10;;
35550;SDS011;21655;46.056;13.616;2022-11-18T16:44:04;25.67;;;12.77;;
35550;SDS011;21655;46.056;13.616;2022-11-18T16:46:32;16.50;;;10.95;;
35550;SDS011;21655;46.056;13.616;2022-11-18T16:48:58;16.45;;;11.15;;
35550;SDS011;21655;46.056;13.616;2022-11-18T16:51:25;27.27;;;15.73;;
35550;SDS011;21655;46.056;13.616;2022-11-18T16:53:55;24.15;;;16.60;;
35550;SDS011;21655;46.056;13.616;2022-11-18T16:56:26;23.80;;;18.00;;
35550;SDS011;21655;46.056;13.616;2022-11-18T16:58:57;26.83;;;18.98;;
35550;SDS011;21655;46.056;13.616;2022-11-18T17:01:23;23.08;;;15.52;;
35550;SDS011;21655;46.056;13.616;2022-11-18T17:03:49;17.75;;;10.63;;
35550;SDS011;21655;46.056;13.616;2022-11-18T17:06:19;16.23;;;8.15;;
35550;SDS011;21655;46.056;13.616;2022-11-18T17:08:45;13.90;;;7.40;;
35550;SDS011;21655;46.056;13.616;2022-11-18T17:11:11;12.77;;;6.22;;
35550;SDS011;21655;46.056;13.616;2022-11-18T17:13:37;12.40;;;7.10;;
35550;SDS011;21655;46.056;13.616;2022-11-18T17:16:06;25.08;;;12.77;;